sensor_id;sensor_type;location;lat;lon;timestamp;temperature;humidity
46091;DHT22;31826;53.572;10.170;2023-02-16T00:01:57;2.20;99.90
46091;DHT22;31826;53.572;10.170;2023-02-16T00:04:28;2.20;99.90
46091;DHT22;31826;53.572;10.170;2023-02-16T00:06:55;2.20;99.90
46091;DHT22;31826;53.572;10.170;2023-02-16T00:09:22;2.20;99.90
46091;DHT22;31826;53.572;10.170;2023-02-16T00:11:49;2.10;99.90
46091;DHT22;31826;53.572;10.170;2023-02-16T00:14:36;2.20;99.90
46091;DHT22;31826;53.572;10.170;2023-02-16T00:17:02;2.10;99.90
46091;DHT22;31826;53.572;10.170;2023-02-16T00:19:31;2.20;99.90
46091;DHT22;31826;53.572;10.170;2023-02-16T00:21:59;2.10;99.90
46091;DHT22;31826;53.572;10.170;2023-02-16T00:24:26;2.20;99.90
46091;DHT22;31826;53.572;10.170;2023-02-16T00:26:53;2.20;99.90
46091;DHT22;31826;53.572;10.170;2023-02-16T00:31:48;2.20;99.90
46091;DHT22;31826;53.572;10.170;2023-02-16T00:37:01;2.30;99.90
46091;DHT22;31826;53.572;10.170;2023-02-16T00:39:27;2.30;99.90
46091;DHT22;31826;53.572;10.170;2023-02-16T00:42:05;2.30;99.90
46091;DHT22;31826;53.572;10.170;2023-02-16T00:44:41;2.30;99.90
46091;DHT22;31826;53.572;10.170;2023-02-16T00:47:29;2.30;99.90
46091;DHT22;31826;53.572;10.170;2023-02-16T00:49:57;2.30;99.90
46091;DHT22;31826;53.572;10.170;2023-02-16T00:54:56;2.40;99.90
46091;DHT22;31826;53.572;10.170;2023-02-16T00:57:22;2.40;99.90
46091;DHT22;31826;53.572;10.170;2023-02-16T00:59:58;2.50;99.90
46091;DHT22;31826;53.572;10.170;2023-02-16T01:02:24;2.50;99.90
46091;DHT22;31826;53.572;10.170;2023-02-16T01:04:50;2.50;99.90
46091;DHT22;31826;53.572;10.170;2023-02-16T01:07:17;2.40;99.90
46091;DHT22;31826;53.572;10.170;2023-02-16T01:10:03;2.40;99.90
46091;DHT22;31826;53.572;10.170;2023-02-16T01:12:48;2.30;99.90
46091;DHT22;31826;53.572;10.170;2023-02-16T01:15:15;2.40;99.90
46091;DHT22;31826;53.572;10.170;2023-02-16T01:17:43;2.30;99.90
46091;DHT22;31826;53.572;10.170;2023-02-16T01:20:19;2.30;99.90
46091;DHT22;31826;53.572;10.170;2023-02-16T01:22:45;2.30;99.90
46091;DHT22;31826;53.572;10.170;2023-02-16T01:25:13;2.30;99.90
46091;DHT22;31826;53.572;10.170;2023-02-16T01:27:39;2.20;99.90
46091;DHT22;31826;53.572;10.170;2023-02-16T01:30:06;2.10;99.90
46091;DHT22;31826;53.572;10.170;2023-02-16T01:32:33;2.10;99.90
46091;DHT22;31826;53.572;10.170;2023-02-16T01:34:58;2.10;99.90
46091;DHT22;31826;53.572;10.170;2023-02-16T01:37:24;2.00;99.90
46091;DHT22;31826;53.572;10.170;2023-02-16T01:39:50;2.00;99.90
46091;DHT22;31826;53.572;10.170;2023-02-16T01:45:01;2.00;99.90
46091;DHT22;31826;53.572;10.170;2023-02-16T01:47:37;2.00;99.90
46091;DHT22;31826;53.572;10.170;2023-02-16T01:50:24;2.00;99.90
46091;DHT22;31826;53.572;10.170;2023-02-16T01:54:06;2.10;99.90
46091;DHT22;31826;53.572;10.170;2023-02-16T01:56:01;2.10;99.90
46091;DHT22;31826;53.572;10.170;2023-02-16T01:58:51;2.30;99.90
46091;DHT22;31826;53.572;10.170;2023-02-16T02:01:35;2.30;99.90
46091;DHT22;31826;53.572;10.170;2023-02-16T02:04:28;2.40;99.90
46091;DHT22;31826;53.572;10.170;2023-02-16T02:10:04;2.40;99.90
46091;DHT22;31826;53.572;10.170;2023-02-16T02:15:24;2.50;99.90
46091;DHT22;31826;53.572;10.170;2023-02-16T02:17:51;2.50;99.90
46091;DHT22;31826;53.572;10.170;2023-02-16T02:29:11;2.30;99.90
46091;DHT22;31826;53.572;10.170;2023-02-16T02:32:05;2.40;99.90
46091;DHT22;31826;53.572;10.170;2023-02-16T02:45:30;2.30;99.90
46091;DHT22;31826;53.572;10.170;2023-02-16T02:47:56;2.20;99.90
46091;DHT22;31826;53.572;10.170;2023-02-16T02:53:27;2.30;99.90
46091;DHT22;31826;53.572;10.170;2023-02-16T02:55:54;2.40;99.90
46091;DHT22;31826;53.572;10.170;2023-02-16T02:58:42;2.40;99.90
46091;DHT22;31826;53.572;10.170;2023-02-16T03:01:37;2.30;99.90
46091;DHT22;31826;53.572;10.170;2023-02-16T03:04:05;2.30;99.90
46091;DHT22;31826;53.572;10.170;2023-02-16T03:06:35;2.40;99.90
46091;DHT22;31826;53.572;10.170;2023-02-16T03:09:09;2.40;99.90
46091;DHT22;31826;53.572;10.170;2023-02-16T03:11:36;2.30;99.90
46091;DHT22;31826;53.572;10.170;2023-02-16T03:14:35;2.30;99.90
46091;DHT22;31826;53.572;10.170;2023-02-16T03:17:13;2.40;99.90
46091;DHT22;31826;53.572;10.170;2023-02-16T03:20:00;2.40;99.90
46091;DHT22;31826;53.572;10.170;2023-02-16T03:22:46;2.30;99.90
46091;DHT22;31826;53.572;10.170;2023-02-16T03:25:36;2.40;99.90
46091;DHT22;31826;53.572;10.170;2023-02-16T03:28:24;2.40;99.90
46091;DHT22;31826;53.572;10.170;2023-02-16T03:31:11;2.40;99.90
46091;DHT22;31826;53.572;10.170;2023-02-16T03:33:39;2.40;99.90
46091;DHT22;31826;53.572;10.170;2023-02-16T03:36:06;2.30;99.90
46091;DHT22;31826;53.572;10.170;2023-02-16T03:38:32;2.40;99.90
46091;DHT22;31826;53.572;10.170;2023-02-16T03:40:58;2.30;99.90
46091;DHT22;31826;53.572;10.170;2023-02-16T03:43:26;2.30;99.90
46091;DHT22;31826;53.572;10.170;2023-02-16T03:45:52;2.20;99.90
46091;DHT22;31826;53.572;10.170;2023-02-16T03:48:18;2.30;99.90
46091;DHT22;31826;53.572;10.170;2023-02-16T03:50:44;2.20;99.90
46091;DHT22;31826;53.572;10.170;2023-02-16T03:53:09;2.20;99.90
46091;DHT22;31826;53.572;10.170;2023-02-16T03:55:46;2.20;99.90
46091;DHT22;31826;53.572;10.170;2023-02-16T03:58:14;2.20;99.90
46091;DHT22;31826;53.572;10.170;2023-02-16T04:00:41;2.20;99.90
46091;DHT22;31826;53.572;10.170;2023-02-16T04:03:07;2.10;99.90
46091;DHT22;31826;53.572;10.170;2023-02-16T04:05:36;2.10;99.90
46091;DHT22;31826;53.572;10.170;2023-02-16T04:08:02;2.10;99.90
46091;DHT22;31826;53.572;10.170;2023-02-16T04:10:28;2.00;99.90
46091;DHT22;31826;53.572;10.170;2023-02-16T04:12:53;2.00;99.90
46091;DHT22;31826;53.572;10.170;2023-02-16T04:15:21;1.90;99.90
46091;DHT22;31826;53.572;10.170;2023-02-16T04:17:47;1.90;99.90
46091;DHT22;31826;53.572;10.170;2023-02-16T04:20:15;1.90;99.90
46091;DHT22;31826;53.572;10.170;2023-02-16T04:22:42;1.90;99.90
46091;DHT22;31826;53.572;10.170;2023-02-16T04:25:08;1.90;99.90
46091;DHT22;31826;53.572;10.170;2023-02-16T04:27:35;2.00;99.90
46091;DHT22;31826;53.572;10.170;2023-02-16T04:30:02;2.00;99.90
46091;DHT22;31826;53.572;10.170;2023-02-16T04:32:27;2.00;99.90
46091;DHT22;31826;53.572;10.170;2023-02-16T04:34:53;2.00;99.90
46091;DHT22;31826;53.572;10.170;2023-02-16T04:37:19;2.00;99.90
46091;DHT22;31826;53.572;10.170;2023-02-16T04:39:45;2.00;99.90
46091;DHT22;31826;53.572;10.170;2023-02-16T04:42:11;1.90;99.90
46091;DHT22;31826;53.572;10.170;2023-02-16T04:44:36;1.90;99.90
46091;DHT22;31826;53.572;10.170;2023-02-16T04:47:02;1.90;99.90
46091;DHT22;31826;53.572;10.170;2023-02-16T04:49:28;1.90;99.90
46091;DHT22;31826;53.572;10.170;2023-02-16T04:51:54;1.90;99.90
46091;DHT22;31826;53.572;10.170;2023-02-16T04:54:20;1.90;99.90
46091;DHT22;31826;53.572;10.170;2023-02-16T04:56:46;1.80;99.90
46091;DHT22;31826;53.572;10.170;2023-02-16T04:59:13;1.70;99.90
46091;DHT22;31826;53.572;10.170;2023-02-16T05:01:39;1.80;99.90
46091;DHT22;31826;53.572;10.170;2023-02-16T05:04:06;1.80;99.90
46091;DHT22;31826;53.572;10.170;2023-02-16T05:06:34;1.70;99.90
46091;DHT22;31826;53.572;10.170;2023-02-16T05:09:00;1.80;99.90
46091;DHT22;31826;53.572;10.170;2023-02-16T05:11:26;1.80;99.90
46091;DHT22;31826;53.572;10.170;2023-02-16T05:14:20;1.70;99.90
46091;DHT22;31826;53.572;10.170;2023-02-16T05:17:05;1.70;99.90
46091;DHT22;31826;53.572;10.170;2023-02-16T05:19:31;1.70;99.90
46091;DHT22;31826;53.572;10.170;2023-02-16T05:21:56;1.70;99.90
46091;DHT22;31826;53.572;10.170;2023-02-16T05:24:22;1.70;99.90
46091;DHT22;31826;53.572;10.170;2023-02-16T05:26:48;1.80;99.90
46091;DHT22;31826;53.572;10.170;2023-02-16T05:29:13;1.80;99.90
46091;DHT22;31826;53.572;10.170;2023-02-16T05:31:39;1.80;99.90
46091;DHT22;31826;53.572;10.170;2023-02-16T05:34:05;1.80;99.90
46091;DHT22;31826;53.572;10.170;2023-02-16T05:36:30;1.90;99.90
46091;DHT22;31826;53.572;10.170;2023-02-16T05:38:56;2.00;99.90
46091;DHT22;31826;53.572;10.170;2023-02-16T05:41:22;2.00;99.90
46091;DHT22;31826;53.572;10.170;2023-02-16T05:43:52;2.10;99.90
46091;DHT22;31826;53.572;10.170;2023-02-16T05:46:20;2.10;99.90
46091;DHT22;31826;53.572;10.170;2023-02-16T05:48:46;2.10;99.90
46091;DHT22;31826;53.572;10.170;2023-02-16T05:51:12;2.20;99.90
46091;DHT22;31826;53.572;10.170;2023-02-16T05:53:37;2.10;99.90
46091;DHT22;31826;53.572;10.170;2023-02-16T05:56:03;2.20;99.90
46091;DHT22;31826;53.572;10.170;2023-02-16T05:58:29;2.20;99.90
46091;DHT22;31826;53.572;10.170;2023-02-16T06:00:55;2.10;99.90
46091;DHT22;31826;53.572;10.170;2023-02-16T06:03:21;2.20;99.90
46091;DHT22;31826;53.572;10.170;2023-02-16T06:05:55;2.20;99.90
46091;DHT22;31826;53.572;10.170;2023-02-16T06:08:21;2.20;99.90
46091;DHT22;31826;53.572;10.170;2023-02-16T06:10:49;2.10;99.90
46091;DHT22;31826;53.572;10.170;2023-02-16T06:13:15;2.30;99.90
46091;DHT22;31826;53.572;10.170;2023-02-16T06:15:41;2.20;99.90
46091;DHT22;31826;53.572;10.170;2023-02-16T06:18:08;2.20;99.90
46091;DHT22;31826;53.572;10.170;2023-02-16T06:20:36;2.10;99.90
46091;DHT22;31826;53.572;10.170;2023-02-16T06:23:02;2.10;99.90
46091;DHT22;31826;53.572;10.170;2023-02-16T06:25:27;2.10;99.90
46091;DHT22;31826;53.572;10.170;2023-02-16T06:27:53;2.10;99.90
46091;DHT22;31826;53.572;10.170;2023-02-16T06:30:22;2.10;99.90
46091;DHT22;31826;53.572;10.170;2023-02-16T06:32:48;2.20;99.90
46091;DHT22;31826;53.572;10.170;2023-02-16T06:35:13;2.20;99.90
46091;DHT22;31826;53.572;10.170;2023-02-16T06:37:39;2.20;99.90
46091;DHT22;31826;53.572;10.170;2023-02-16T06:40:06;2.30;99.90
46091;DHT22;31826;53.572;10.170;2023-02-16T06:42:31;2.20;99.90
46091;DHT22;31826;53.572;10.170;2023-02-16T06:44:57;2.20;99.90
46091;DHT22;31826;53.572;10.170;2023-02-16T06:47:23;2.20;99.90
46091;DHT22;31826;53.572;10.170;2023-02-16T06:49:49;2.30;99.90
46091;DHT22;31826;53.572;10.170;2023-02-16T06:52:14;2.30;99.90
46091;DHT22;31826;53.572;10.170;2023-02-16T06:54:40;2.40;99.90
46091;DHT22;31826;53.572;10.170;2023-02-16T06:57:06;2.40;99.90
46091;DHT22;31826;53.572;10.170;2023-02-16T06:59:31;2.50;99.90
46091;DHT22;31826;53.572;10.170;2023-02-16T07:01:57;2.50;99.90
46091;DHT22;31826;53.572;10.170;2023-02-16T07:04:23;2.50;99.90
46091;DHT22;31826;53.572;10.170;2023-02-16T07:06:48;2.40;99.90
46091;DHT22;31826;53.572;10.170;2023-02-16T07:09:14;2.50;99.90
46091;DHT22;31826;53.572;10.170;2023-02-16T07:11:40;2.50;99.90
46091;DHT22;31826;53.572;10.170;2023-02-16T07:14:05;2.50;99.90
46091;DHT22;31826;53.572;10.170;2023-02-16T07:16:31;2.60;99.90
46091;DHT22;31826;53.572;10.170;2023-02-16T07:18:57;2.60;99.90
46091;DHT22;31826;53.572;10.170;2023-02-16T07:21:22;2.50;99.90
46091;DHT22;31826;53.572;10.170;2023-02-16T07:23:48;2.60;99.90
46091;DHT22;31826;53.572;10.170;2023-02-16T07:26:14;2.70;99.90
46091;DHT22;31826;53.572;10.170;2023-02-16T07:28:39;2.70;99.90
46091;DHT22;31826;53.572;10.170;2023-02-16T07:31:10;2.90;99.90
46091;DHT22;31826;53.572;10.170;2023-02-16T07:33:36;2.90;99.90
46091;DHT22;31826;53.572;10.170;2023-02-16T07:36:03;2.90;99.90
46091;DHT22;31826;53.572;10.170;2023-02-16T07:38:29;2.90;99.90
46091;DHT22;31826;53.572;10.170;2023-02-16T07:40:55;3.00;99.90
46091;DHT22;31826;53.572;10.170;2023-02-16T07:43:22;3.10;99.90
46091;DHT22;31826;53.572;10.170;2023-02-16T07:45:48;3.20;99.90
46091;DHT22;31826;53.572;10.170;2023-02-16T07:48:14;3.30;99.90
46091;DHT22;31826;53.572;10.170;2023-02-16T07:50:40;3.30;99.90
46091;DHT22;31826;53.572;10.170;2023-02-16T07:53:05;3.40;99.90
46091;DHT22;31826;53.572;10.170;2023-02-16T07:55:32;3.50;99.90
46091;DHT22;31826;53.572;10.170;2023-02-16T07:57:58;3.60;99.90
46091;DHT22;31826;53.572;10.170;2023-02-16T08:00:25;3.70;99.90
46091;DHT22;31826;53.572;10.170;2023-02-16T08:02:51;3.80;99.90
46091;DHT22;31826;53.572;10.170;2023-02-16T08:05:17;3.90;99.90
46091;DHT22;31826;53.572;10.170;2023-02-16T08:07:43;4.00;99.90
46091;DHT22;31826;53.572;10.170;2023-02-16T08:10:09;4.10;99.90
46091;DHT22;31826;53.572;10.170;2023-02-16T08:12:36;4.10;99.90
46091;DHT22;31826;53.572;10.170;2023-02-16T08:15:01;4.20;99.90
46091;DHT22;31826;53.572;10.170;2023-02-16T08:17:28;4.20;99.90
46091;DHT22;31826;53.572;10.170;2023-02-16T08:19:54;4.20;99.90
46091;DHT22;31826;53.572;10.170;2023-02-16T08:22:20;4.20;99.90
46091;DHT22;31826;53.572;10.170;2023-02-16T08:24:46;4.20;99.90
46091;DHT22;31826;53.572;10.170;2023-02-16T08:27:12;4.20;99.90
46091;DHT22;31826;53.572;10.170;2023-02-16T08:29:37;4.20;99.90
46091;DHT22;31826;53.572;10.170;2023-02-16T08:32:03;4.30;99.90
46091;DHT22;31826;53.572;10.170;2023-02-16T08:34:32;4.30;99.90
46091;DHT22;31826;53.572;10.170;2023-02-16T08:36:58;4.40;99.90
46091;DHT22;31826;53.572;10.170;2023-02-16T08:39:27;4.40;99.90
46091;DHT22;31826;53.572;10.170;2023-02-16T08:41:54;4.40;99.90
46091;DHT22;31826;53.572;10.170;2023-02-16T08:44:22;4.40;99.90
46091;DHT22;31826;53.572;10.170;2023-02-16T08:46:49;4.50;99.90
46091;DHT22;31826;53.572;10.170;2023-02-16T08:49:17;4.50;99.90
46091;DHT22;31826;53.572;10.170;2023-02-16T08:51:46;4.60;99.90
46091;DHT22;31826;53.572;10.170;2023-02-16T08:54:21;4.70;99.90
46091;DHT22;31826;53.572;10.170;2023-02-16T08:56:47;4.80;99.90
46091;DHT22;31826;53.572;10.170;2023-02-16T08:59:18;4.90;99.90
46091;DHT22;31826;53.572;10.170;2023-02-16T09:01:44;4.90;99.90
46091;DHT22;31826;53.572;10.170;2023-02-16T09:04:10;5.00;99.90
46091;DHT22;31826;53.572;10.170;2023-02-16T09:06:38;5.00;99.90
46091;DHT22;31826;53.572;10.170;2023-02-16T09:09:05;5.20;99.90
46091;DHT22;31826;53.572;10.170;2023-02-16T09:11:32;5.30;99.90
46091;DHT22;31826;53.572;10.170;2023-02-16T09:13:58;5.30;99.90
46091;DHT22;31826;53.572;10.170;2023-02-16T09:16:24;5.30;99.90
46091;DHT22;31826;53.572;10.170;2023-02-16T09:18:52;5.40;99.90
46091;DHT22;31826;53.572;10.170;2023-02-16T09:21:23;5.40;99.90
46091;DHT22;31826;53.572;10.170;2023-02-16T09:23:54;5.40;99.90
46091;DHT22;31826;53.572;10.170;2023-02-16T09:26:22;5.50;99.90
46091;DHT22;31826;53.572;10.170;2023-02-16T09:28:49;5.50;99.90
46091;DHT22;31826;53.572;10.170;2023-02-16T09:31:24;5.50;99.90
46091;DHT22;31826;53.572;10.170;2023-02-16T09:34:01;5.60;99.90
46091;DHT22;31826;53.572;10.170;2023-02-16T09:36:27;5.60;99.90
46091;DHT22;31826;53.572;10.170;2023-02-16T09:38:53;5.70;99.90
46091;DHT22;31826;53.572;10.170;2023-02-16T09:41:24;5.70;99.90
46091;DHT22;31826;53.572;10.170;2023-02-16T09:46:47;5.70;99.90
46091;DHT22;31826;53.572;10.170;2023-02-16T09:52:00;5.80;99.90
46091;DHT22;31826;53.572;10.170;2023-02-16T09:54:56;5.80;99.90
46091;DHT22;31826;53.572;10.170;2023-02-16T10:05:55;5.90;99.90
46091;DHT22;31826;53.572;10.170;2023-02-16T10:08:33;6.00;99.90
46091;DHT22;31826;53.572;10.170;2023-02-16T10:11:26;6.10;99.90
46091;DHT22;31826;53.572;10.170;2023-02-16T10:14:26;6.10;99.90
46091;DHT22;31826;53.572;10.170;2023-02-16T10:17:25;6.40;99.90
46091;DHT22;31826;53.572;10.170;2023-02-16T10:25:24;6.60;99.90
46091;DHT22;31826;53.572;10.170;2023-02-16T10:28:11;6.70;99.90
46091;DHT22;31826;53.572;10.170;2023-02-16T10:30:45;6.90;99.90
46091;DHT22;31826;53.572;10.170;2023-02-16T10:33:15;6.90;99.90
46091;DHT22;31826;53.572;10.170;2023-02-16T10:35:49;7.00;99.90
46091;DHT22;31826;53.572;10.170;2023-02-16T10:43:51;6.90;99.90
46091;DHT22;31826;53.572;10.170;2023-02-16T10:46:31;6.80;99.90
46091;DHT22;31826;53.572;10.170;2023-02-16T10:48:59;6.80;99.90
46091;DHT22;31826;53.572;10.170;2023-02-16T10:51:31;6.80;99.90
46091;DHT22;31826;53.572;10.170;2023-02-16T10:54:03;6.80;99.90
46091;DHT22;31826;53.572;10.170;2023-02-16T10:56:52;6.80;99.90
46091;DHT22;31826;53.572;10.170;2023-02-16T10:59:30;6.80;99.90
46091;DHT22;31826;53.572;10.170;2023-02-16T11:01:59;6.80;99.90
46091;DHT22;31826;53.572;10.170;2023-02-16T11:04:33;6.80;99.90
46091;DHT22;31826;53.572;10.170;2023-02-16T11:07:02;6.80;99.90
46091;DHT22;31826;53.572;10.170;2023-02-16T11:09:29;6.80;99.90
46091;DHT22;31826;53.572;10.170;2023-02-16T11:11:55;6.80;99.90
46091;DHT22;31826;53.572;10.170;2023-02-16T11:14:24;6.90;99.90
46091;DHT22;31826;53.572;10.170;2023-02-16T11:17:11;6.90;99.90
46091;DHT22;31826;53.572;10.170;2023-02-16T11:19:45;6.90;99.90
46091;DHT22;31826;53.572;10.170;2023-02-16T11:22:36;6.90;99.90
46091;DHT22;31826;53.572;10.170;2023-02-16T11:25:18;7.00;99.90
46091;DHT22;31826;53.572;10.170;2023-02-16T11:27:55;7.00;99.90
46091;DHT22;31826;53.572;10.170;2023-02-16T11:30:34;7.10;99.90
46091;DHT22;31826;53.572;10.170;2023-02-16T11:33:03;7.20;99.90
46091;DHT22;31826;53.572;10.170;2023-02-16T11:35:32;7.20;99.90
46091;DHT22;31826;53.572;10.170;2023-02-16T11:38:05;7.30;99.90
46091;DHT22;31826;53.572;10.170;2023-02-16T11:40:32;7.30;99.90
46091;DHT22;31826;53.572;10.170;2023-02-16T11:43:00;7.30;99.90
46091;DHT22;31826;53.572;10.170;2023-02-16T11:45:33;7.20;99.90
46091;DHT22;31826;53.572;10.170;2023-02-16T11:48:00;7.30;99.90
46091;DHT22;31826;53.572;10.170;2023-02-16T11:50:29;7.30;99.90
46091;DHT22;31826;53.572;10.170;2023-02-16T11:53:21;7.30;99.90
46091;DHT22;31826;53.572;10.170;2023-02-16T11:55:48;7.30;99.90
46091;DHT22;31826;53.572;10.170;2023-02-16T12:03:53;7.30;99.90
46091;DHT22;31826;53.572;10.170;2023-02-16T12:06:34;7.30;99.90
46091;DHT22;31826;53.572;10.170;2023-02-16T12:11:55;7.40;99.90
46091;DHT22;31826;53.572;10.170;2023-02-16T12:22:42;7.40;99.90
46091;DHT22;31826;53.572;10.170;2023-02-16T12:26:22;7.40;99.90
46091;DHT22;31826;53.572;10.170;2023-02-16T12:29:59;7.50;99.90
46091;DHT22;31826;53.572;10.170;2023-02-16T12:34:43;7.40;99.90
46091;DHT22;31826;53.572;10.170;2023-02-16T12:40:15;7.40;99.90
46091;DHT22;31826;53.572;10.170;2023-02-16T12:45:31;7.40;99.90
46091;DHT22;31826;53.572;10.170;2023-02-16T12:48:32;7.40;99.90
46091;DHT22;31826;53.572;10.170;2023-02-16T12:51:02;7.40;99.90
46091;DHT22;31826;53.572;10.170;2023-02-16T12:56:23;7.30;99.90
46091;DHT22;31826;53.572;10.170;2023-02-16T12:58:57;7.40;99.90
46091;DHT22;31826;53.572;10.170;2023-02-16T13:01:28;7.40;99.90
46091;DHT22;31826;53.572;10.170;2023-02-16T13:06:56;7.40;99.90
46091;DHT22;31826;53.572;10.170;2023-02-16T13:14:44;7.40;99.90
46091;DHT22;31826;53.572;10.170;2023-02-16T13:17:18;7.50;99.90
46091;DHT22;31826;53.572;10.170;2023-02-16T13:19:46;7.50;99.90
46091;DHT22;31826;53.572;10.170;2023-02-16T13:22:58;7.50;99.90
46091;DHT22;31826;53.572;10.170;2023-02-16T13:27:37;7.60;99.90
46091;DHT22;31826;53.572;10.170;2023-02-16T13:35:33;7.50;99.90
46091;DHT22;31826;53.572;10.170;2023-02-16T13:43:39;7.50;99.90
46091;DHT22;31826;53.572;10.170;2023-02-16T13:46:11;7.50;99.90
46091;DHT22;31826;53.572;10.170;2023-02-16T13:48:47;7.50;99.90
46091;DHT22;31826;53.572;10.170;2023-02-16T13:51:25;7.50;99.90
46091;DHT22;31826;53.572;10.170;2023-02-16T13:53:55;7.50;99.90
46091;DHT22;31826;53.572;10.170;2023-02-16T13:58:54;7.50;99.90
46091;DHT22;31826;53.572;10.170;2023-02-16T14:04:00;7.50;99.90
46091;DHT22;31826;53.572;10.170;2023-02-16T14:09:30;7.60;99.90
46091;DHT22;31826;53.572;10.170;2023-02-16T14:12:16;7.60;99.90
46091;DHT22;31826;53.572;10.170;2023-02-16T14:14:44;7.60;99.90
46091;DHT22;31826;53.572;10.170;2023-02-16T14:17:14;7.60;99.90
46091;DHT22;31826;53.572;10.170;2023-02-16T14:20:52;7.70;99.90
46091;DHT22;31826;53.572;10.170;2023-02-16T14:22:54;7.60;99.90
46091;DHT22;31826;53.572;10.170;2023-02-16T14:25:37;7.60;99.90
46091;DHT22;31826;53.572;10.170;2023-02-16T14:31:19;7.70;99.90
46091;DHT22;31826;53.572;10.170;2023-02-16T14:34:06;7.70;99.90
46091;DHT22;31826;53.572;10.170;2023-02-16T14:37:10;7.80;99.90
46091;DHT22;31826;53.572;10.170;2023-02-16T14:39:48;7.80;99.90
46091;DHT22;31826;53.572;10.170;2023-02-16T14:42:30;7.90;99.90
46091;DHT22;31826;53.572;10.170;2023-02-16T14:50:51;7.90;99.90
46091;DHT22;31826;53.572;10.170;2023-02-16T14:56:41;7.90;99.90
46091;DHT22;31826;53.572;10.170;2023-02-16T14:59:37;7.90;99.90
46091;DHT22;31826;53.572;10.170;2023-02-16T15:02:53;7.90;99.90
46091;DHT22;31826;53.572;10.170;2023-02-16T15:05:19;7.80;99.90
46091;DHT22;31826;53.572;10.170;2023-02-16T15:07:48;7.80;99.90
46091;DHT22;31826;53.572;10.170;2023-02-16T15:10:18;7.80;99.90
46091;DHT22;31826;53.572;10.170;2023-02-16T15:12:46;7.80;99.90
46091;DHT22;31826;53.572;10.170;2023-02-16T15:15:25;7.80;99.90
46091;DHT22;31826;53.572;10.170;2023-02-16T15:17:53;7.90;99.90
46091;DHT22;31826;53.572;10.170;2023-02-16T15:20:28;7.90;99.90
46091;DHT22;31826;53.572;10.170;2023-02-16T15:22:58;7.90;99.90
46091;DHT22;31826;53.572;10.170;2023-02-16T15:25:27;7.80;99.90
46091;DHT22;31826;53.572;10.170;2023-02-16T15:27:58;7.80;99.90
46091;DHT22;31826;53.572;10.170;2023-02-16T15:30:30;7.80;99.90
46091;DHT22;31826;53.572;10.170;2023-02-16T15:32:59;7.80;99.90
46091;DHT22;31826;53.572;10.170;2023-02-16T15:35:38;7.80;99.90
46091;DHT22;31826;53.572;10.170;2023-02-16T15:40:38;7.70;99.90
46091;DHT22;31826;53.572;10.170;2023-02-16T15:45:41;7.60;99.90
46091;DHT22;31826;53.572;10.170;2023-02-16T15:50:48;7.50;99.90
46091;DHT22;31826;53.572;10.170;2023-02-16T15:53:32;7.60;99.90
46091;DHT22;31826;53.572;10.170;2023-02-16T15:55:58;7.50;99.90
46091;DHT22;31826;53.572;10.170;2023-02-16T15:58:27;7.50;99.90
46091;DHT22;31826;53.572;10.170;2023-02-16T16:00:52;7.50;99.90
46091;DHT22;31826;53.572;10.170;2023-02-16T16:03:19;7.50;99.90
46091;DHT22;31826;53.572;10.170;2023-02-16T16:06:01;7.50;99.90
46091;DHT22;31826;53.572;10.170;2023-02-16T16:08:28;7.50;99.90
46091;DHT22;31826;53.572;10.170;2023-02-16T16:10:55;7.50;99.90
46091;DHT22;31826;53.572;10.170;2023-02-16T16:13:26;7.50;99.90
46091;DHT22;31826;53.572;10.170;2023-02-16T16:15:55;7.50;99.90
46091;DHT22;31826;53.572;10.170;2023-02-16T16:18:46;7.40;99.90
46091;DHT22;31826;53.572;10.170;2023-02-16T16:21:22;7.40;99.90
46091;DHT22;31826;53.572;10.170;2023-02-16T16:24:10;7.40;99.90
46091;DHT22;31826;53.572;10.170;2023-02-16T16:29:36;7.30;99.90
46091;DHT22;31826;53.572;10.170;2023-02-16T16:32:03;7.30;99.90
46091;DHT22;31826;53.572;10.170;2023-02-16T16:34:36;7.20;99.90
46091;DHT22;31826;53.572;10.170;2023-02-16T16:37:03;7.30;99.90
46091;DHT22;31826;53.572;10.170;2023-02-16T16:39:39;7.20;99.90
46091;DHT22;31826;53.572;10.170;2023-02-16T16:42:20;7.20;99.90
46091;DHT22;31826;53.572;10.170;2023-02-16T16:45:32;7.20;99.90
46091;DHT22;31826;53.572;10.170;2023-02-16T16:47:52;7.20;99.90
46091;DHT22;31826;53.572;10.170;2023-02-16T16:50:29;7.10;99.90
46091;DHT22;31826;53.572;10.170;2023-02-16T16:52:55;7.10;99.90
46091;DHT22;31826;53.572;10.170;2023-02-16T16:55:31;7.20;99.90
46091;DHT22;31826;53.572;10.170;2023-02-16T16:58:00;7.10;99.90
46091;DHT22;31826;53.572;10.170;2023-02-16T17:00:38;7.10;99.90
46091;DHT22;31826;53.572;10.170;2023-02-16T17:03:08;7.10;99.90
46091;DHT22;31826;53.572;10.170;2023-02-16T17:05:36;7.10;99.90
46091;DHT22;31826;53.572;10.170;2023-02-16T17:08:04;7.10;99.90
46091;DHT22;31826;53.572;10.170;2023-02-16T17:10:30;7.00;99.90
46091;DHT22;31826;53.572;10.170;2023-02-16T17:12:57;7.00;99.90
46091;DHT22;31826;53.572;10.170;2023-02-16T17:18:17;7.00;99.90
46091;DHT22;31826;53.572;10.170;2023-02-16T17:20:43;7.00;99.90
46091;DHT22;31826;53.572;10.170;2023-02-16T17:23:12;6.90;99.90
46091;DHT22;31826;53.572;10.170;2023-02-16T17:25:38;7.00;99.90
46091;DHT22;31826;53.572;10.170;2023-02-16T17:28:04;6.90;99.90
46091;DHT22;31826;53.572;10.170;2023-02-16T17:30:30;7.00;99.90
46091;DHT22;31826;53.572;10.170;2023-02-16T17:32:56;6.90;99.90
46091;DHT22;31826;53.572;10.170;2023-02-16T17:35:22;7.00;99.90
46091;DHT22;31826;53.572;10.170;2023-02-16T17:37:48;6.90;99.90
46091;DHT22;31826;53.572;10.170;2023-02-16T17:40:17;6.90;99.90
46091;DHT22;31826;53.572;10.170;2023-02-16T17:42:45;6.90;99.90
46091;DHT22;31826;53.572;10.170;2023-02-16T17:45:13;6.90;99.90
46091;DHT22;31826;53.572;10.170;2023-02-16T17:47:40;6.90;99.90
46091;DHT22;31826;53.572;10.170;2023-02-16T17:50:06;6.90;99.90
46091;DHT22;31826;53.572;10.170;2023-02-16T17:52:32;6.90;99.90
46091;DHT22;31826;53.572;10.170;2023-02-16T17:54:58;6.90;99.90
46091;DHT22;31826;53.572;10.170;2023-02-16T17:57:24;6.90;99.90
46091;DHT22;31826;53.572;10.170;2023-02-16T17:59:49;7.00;99.90
46091;DHT22;31826;53.572;10.170;2023-02-16T18:02:15;7.00;99.90
46091;DHT22;31826;53.572;10.170;2023-02-16T18:04:41;7.00;99.90
46091;DHT22;31826;53.572;10.170;2023-02-16T18:07:13;6.90;99.90
46091;DHT22;31826;53.572;10.170;2023-02-16T18:09:40;7.00;99.90
46091;DHT22;31826;53.572;10.170;2023-02-16T18:12:05;6.90;99.90
46091;DHT22;31826;53.572;10.170;2023-02-16T18:14:32;7.00;99.90
46091;DHT22;31826;53.572;10.170;2023-02-16T18:16:58;7.00;99.90
46091;DHT22;31826;53.572;10.170;2023-02-16T18:19:25;7.00;99.90
46091;DHT22;31826;53.572;10.170;2023-02-16T18:21:52;7.00;99.90
46091;DHT22;31826;53.572;10.170;2023-02-16T18:24:18;7.00;99.90